Historique des mesures à Cassis (13260), France
Quotidien Résumé Juin 14, 2018 Unités:  Métrique    US   Métrique/US
« Précédent (Jour)
Suivant (Jour) »
Quotidien Hebdomadaire Mensuel Annuel Période au choix
  Maximum: Minimum: Moyenne:
Température: TemperatureC °C 17.6 °C 21.6 °C
Point de rosée: DewpointC °C 10.9 °C 12.1 °C
Humidité: Humidity % 44 % 52 %
Vitesse du vent: 0 km/h 0 km/h 15.9 km/h
Rafales: 0 km/h - -
Vent:- - WSW
Pression: PressurehPa hPa 1003.8 hPa -
Précipitations: 0.0 mm    
Historical Graphs
 
 
Mesures pour : Juin 14, 2018
Heure Temperature Point de rosée Pression Vent Vitesse du vent Rafales Humidité Pluie (par heure) Conditions
TemperatureC °C DewpointC °C PressurehPa hPa Calm     Humidity % HourlyPrecipMM mm SoftwareType W/m2
00:10 19.4 °C 11.2 °C 1003.8 hPa North 22 km/h 48.6 km/h 59 % 0.0 mm open2300-1.11 W/m2
01:10 19.1 °C 11.2 °C 1004.0 hPa NW 28.5 km/h 28.5 km/h 60 % 0.0 mm open2300-1.11 W/m2
02:10 18.8 °C 11.1 °C 1004.0 hPa NW 10.3 km/h 15 km/h 61 % 0.0 mm open2300-1.11 W/m2
03:10 18.7 °C 11.1 °C 1004.0 hPa NNW 8 km/h 29.5 km/h 61 % 0.0 mm open2300-1.11 W/m2
04:10 17.8 °C 11.1 °C 1004.0 hPa West 15 km/h 16.3 km/h 65 % 0.0 mm open2300-1.11 W/m2
05:10 17.9 °C 11.2 °C 1004.2 hPa West 30.7 km/h 36.5 km/h 65 % 0.0 mm open2300-1.11 W/m2
06:10 18.1 °C 10.9 °C 1004.6 hPa West 10.3 km/h 13.2 km/h 63 % 0.0 mm open2300-1.11 W/m2
07:10 17.6 °C 10.9 °C 1004.9 hPa West 16.3 km/h 16.3 km/h 65 % 0.0 mm open2300-1.11 W/m2
08:10 20.0 °C 12.0 °C 1005.1 hPa Calm   15.6 km/h 60 % 0.0 mm open2300-1.11 W/m2
09:10 20.2 °C 12.2 °C 1005.5 hPa NNE 9.3 km/h 14 km/h 60 % 0.0 mm open2300-1.11 W/m2
10:10 23.1 °C 13.5 °C 1005.8 hPa WNW 13.2 km/h 37 km/h 55 % 0.0 mm open2300-1.11 W/m2
11:10 24.9 °C 14.1 °C 1005.8 hPa West 9.8 km/h 9.8 km/h 51 % 0.0 mm open2300-1.11 W/m2
12:10 26.1 °C 14.6 °C 1005.9 hPa WNW 8.9 km/h 34.8 km/h 49 % 0.0 mm open2300-1.11 W/m2
13:10 26.3 °C 14.4 °C 1006.2 hPa WNW 27.2 km/h 27.2 km/h 48 % 0.0 mm open2300-1.11 W/m2
14:10 26.6 °C 14.3 °C 1006.4 hPa NNW 11.6 km/h 24.8 km/h 47 % 0.0 mm open2300-1.11 W/m2
15:10 26.8 °C 14.2 °C 1006.2 hPa West 22 km/h 37 km/h 46 % 0.0 mm open2300-1.11 W/m2
16:10 26.8 °C 14.2 °C 1006.0 hPa WNW 19.6 km/h 40.7 km/h 46 % 0.0 mm open2300-1.11 W/m2
17:10 26.6 °C 13.6 °C 1005.7 hPa WNW 19.6 km/h 34.1 km/h 45 % 0.0 mm open2300-1.11 W/m2
18:10 26.4 °C 13.1 °C 1005.4 hPa West 36 km/h 36 km/h 44 % 0.0 mm open2300-1.11 W/m2
19:10 26.1 °C 13.2 °C 1005.3 hPa West 24.3 km/h 24.3 km/h 45 % 0.0 mm open2300-1.11 W/m2
20:10 25.4 °C 12.9 °C 1005.2 hPa WNW 16.3 km/h 21.6 km/h 46 % 0.0 mm open2300-1.11 W/m2
21:10 23.8 °C 12.8 °C 1005.6 hPa West 20.3 km/h 20.3 km/h 50 % 0.0 mm open2300-1.11 W/m2
22:10 22.6 °C 12.5 °C 1006.4 hPa North 9.8 km/h 10.9 km/h 53 % 0.0 mm open2300-1.11 W/m2
23:10 21.6 °C 12.2 °C 1007.0 hPa NNW 8.9 km/h 10.3 km/h 55 % 0.0 mm open2300-1.11 W/m2
Observations météo à CASSIS
WU-History script by Weather Underground - 1 mb